createdAt,value
2019-03-21T00:03:00.000Z,4.5
2019-03-21T00:08:00.000Z,4.5
2019-03-21T00:13:00.000Z,4.5
2019-03-21T00:19:00.000Z,4.5
2019-03-21T00:24:00.000Z,4.4
2019-03-21T00:29:00.000Z,4.4
2019-03-21T00:34:00.000Z,4.4
2019-03-21T00:39:00.000Z,4.4
2019-03-21T00:44:00.000Z,4.5
2019-03-21T00:49:00.000Z,4.5
2019-03-21T00:54:00.000Z,4.5
2019-03-21T00:59:00.000Z,4.6
2019-03-21T01:04:00.000Z,4.6
2019-03-21T01:09:00.000Z,4.6
2019-03-21T01:14:00.000Z,4.6
2019-03-21T01:19:00.000Z,4.6
2019-03-21T01:24:00.000Z,4.5
2019-03-21T01:29:00.000Z,4.6
2019-03-21T01:34:00.000Z,4.6
2019-03-21T01:39:00.000Z,4.5
2019-03-21T01:44:00.000Z,4.4
2019-03-21T01:49:00.000Z,4.3
2019-03-21T01:54:00.000Z,4.3
2019-03-21T01:59:00.000Z,4.2
2019-03-21T02:04:00.000Z,4.1
2019-03-21T02:09:00.000Z,4.0
2019-03-21T02:14:00.000Z,3.9
2019-03-21T02:19:00.000Z,3.9
2019-03-21T02:24:00.000Z,3.9
2019-03-21T02:29:00.000Z,4.0
2019-03-21T02:34:00.000Z,4.0
2019-03-21T02:39:00.000Z,4.0
2019-03-21T02:45:00.000Z,4.0
2019-03-21T02:50:00.000Z,4.0
2019-03-21T02:55:00.000Z,4.0
2019-03-21T03:00:00.000Z,4.0
2019-03-21T03:05:00.000Z,4.0
2019-03-21T03:10:00.000Z,4.1
2019-03-21T03:15:00.000Z,4.1
2019-03-21T03:20:00.000Z,4.1
2019-03-21T03:25:00.000Z,4.2
2019-03-21T03:30:00.000Z,4.2
2019-03-21T03:35:00.000Z,4.1
2019-03-21T03:40:00.000Z,4.1
2019-03-21T03:45:00.000Z,4.0
2019-03-21T03:50:00.000Z,4.0
2019-03-21T03:55:00.000Z,4.1
2019-03-21T04:00:00.000Z,4.1
2019-03-21T04:05:00.000Z,4.2
2019-03-21T04:10:00.000Z,4.2
2019-03-21T04:15:00.000Z,4.2
2019-03-21T04:20:00.000Z,4.2
2019-03-21T04:25:00.000Z,4.2
2019-03-21T04:30:00.000Z,4.2
2019-03-21T04:35:00.000Z,4.2
2019-03-21T04:40:00.000Z,4.1
2019-03-21T04:45:00.000Z,4.1
2019-03-21T04:51:00.000Z,4.1
2019-03-21T04:56:00.000Z,4.1
2019-03-21T05:01:00.000Z,4.1
2019-03-21T05:06:00.000Z,4.0
2019-03-21T05:11:00.000Z,4.1
2019-03-21T05:16:00.000Z,4.2
2019-03-21T05:21:00.000Z,4.3
2019-03-21T05:26:00.000Z,4.4
2019-03-21T05:31:00.000Z,4.5
2019-03-21T05:36:00.000Z,4.6
2019-03-21T05:41:00.000Z,4.6
2019-03-21T05:46:00.000Z,4.6
2019-03-21T05:51:00.000Z,4.7
2019-03-21T05:56:00.000Z,4.8
2019-03-21T06:01:00.000Z,4.9
2019-03-21T06:06:00.000Z,5.0
2019-03-21T06:11:00.000Z,5.0
2019-03-21T06:16:00.000Z,5.1
2019-03-21T06:21:00.000Z,5.2
2019-03-21T06:26:00.000Z,5.2
2019-03-21T06:31:00.000Z,5.2
2019-03-21T06:36:00.000Z,5.2
2019-03-21T06:41:00.000Z,5.3
2019-03-21T06:46:00.000Z,5.5
2019-03-21T06:51:00.000Z,5.5
2019-03-21T06:56:00.000Z,5.5
2019-03-21T07:01:00.000Z,5.6
2019-03-21T07:06:00.000Z,5.8
2019-03-21T07:11:00.000Z,5.9
2019-03-21T07:16:00.000Z,6.1
2019-03-21T07:22:00.000Z,6.4
2019-03-21T07:27:00.000Z,6.6
2019-03-21T07:32:00.000Z,6.9
2019-03-21T07:37:00.000Z,7.1
2019-03-21T07:42:00.000Z,7.2
2019-03-21T07:47:00.000Z,7.3
2019-03-21T07:52:00.000Z,7.4
2019-03-21T07:57:00.000Z,7.4
2019-03-21T08:02:00.000Z,7.6
2019-03-21T08:07:00.000Z,7.8
2019-03-21T08:12:00.000Z,8.0
2019-03-21T08:17:00.000Z,8.1
2019-03-21T08:22:00.000Z,8.3
2019-03-21T08:27:00.000Z,8.6
2019-03-21T08:32:00.000Z,8.9
2019-03-21T08:37:00.000Z,9.5
2019-03-21T08:42:00.000Z,10.7
2019-03-21T08:47:00.000Z,12.1
2019-03-21T08:52:00.000Z,13.4
2019-03-21T08:57:00.000Z,14.8
2019-03-21T09:02:00.000Z,16.2
2019-03-21T09:07:00.000Z,17.2
2019-03-21T09:12:00.000Z,17.7
2019-03-21T09:17:00.000Z,17.6
2019-03-21T09:22:00.000Z,18.0
2019-03-21T09:27:00.000Z,18.2
2019-03-21T09:32:00.000Z,18.6
2019-03-21T09:37:00.000Z,18.4
2019-03-21T09:42:00.000Z,18.1
2019-03-21T09:47:00.000Z,17.7
2019-03-21T09:52:00.000Z,17.5
2019-03-21T09:57:00.000Z,17.8
2019-03-21T10:02:00.000Z,18.4
2019-03-21T10:07:00.000Z,18.6
2019-03-21T10:12:00.000Z,18.3
2019-03-21T10:17:00.000Z,18.0
2019-03-21T10:22:00.000Z,18.2
2019-03-21T10:27:00.000Z,18.7
2019-03-21T10:32:00.000Z,19.1
2019-03-21T10:37:00.000Z,19.2
2019-03-21T10:42:00.000Z,19.1
2019-03-21T10:47:00.000Z,19.1
2019-03-21T10:52:00.000Z,18.7
2019-03-21T10:57:00.000Z,18.3
2019-03-21T11:02:00.000Z,18.2
2019-03-21T11:07:00.000Z,18.2
2019-03-21T11:12:00.000Z,18.3
2019-03-21T11:17:00.000Z,18.1
2019-03-21T11:22:00.000Z,17.8
2019-03-21T11:27:00.000Z,17.6
2019-03-21T11:32:00.000Z,17.3
2019-03-21T11:37:00.000Z,16.6
2019-03-21T11:42:00.000Z,15.9
2019-03-21T11:47:00.000Z,15.4
2019-03-21T11:53:00.000Z,15.1
2019-03-21T11:58:00.000Z,15.0
2019-03-21T12:03:00.000Z,15.0
2019-03-21T12:08:00.000Z,15.0
2019-03-21T12:13:00.000Z,15.0
2019-03-21T12:18:00.000Z,15.3
2019-03-21T12:23:00.000Z,15.5
2019-03-21T12:28:00.000Z,15.7
2019-03-21T12:33:00.000Z,15.9
2019-03-21T12:38:00.000Z,16.2
2019-03-21T12:43:00.000Z,16.4
2019-03-21T12:48:00.000Z,16.5
2019-03-21T12:53:00.000Z,16.6
2019-03-21T12:58:00.000Z,16.8
2019-03-21T13:03:00.000Z,17.1
2019-03-21T13:08:00.000Z,17.2
2019-03-21T13:13:00.000Z,17.3
2019-03-21T13:18:00.000Z,17.3
2019-03-21T13:23:00.000Z,17.0
2019-03-21T13:28:00.000Z,16.9
2019-03-21T13:38:00.000Z,17.1
2019-03-21T13:43:00.000Z,17.2
2019-03-21T13:48:00.000Z,17.4
2019-03-21T13:53:00.000Z,17.4
2019-03-21T13:58:00.000Z,17.4
2019-03-21T14:03:00.000Z,17.2
2019-03-21T14:08:00.000Z,16.9
2019-03-21T14:13:00.000Z,16.7
2019-03-21T14:18:00.000Z,16.6
2019-03-21T14:23:00.000Z,16.8
2019-03-21T14:28:00.000Z,16.8
2019-03-21T14:33:00.000Z,16.7
2019-03-21T14:38:00.000Z,16.3
2019-03-21T14:43:00.000Z,16.2
2019-03-21T14:48:00.000Z,16.2
2019-03-21T14:53:00.000Z,16.1
2019-03-21T14:58:00.000Z,16.0
2019-03-21T15:03:00.000Z,15.9
2019-03-21T15:08:00.000Z,15.8
2019-03-21T15:13:00.000Z,15.6
2019-03-21T15:18:00.000Z,15.5
2019-03-21T15:23:00.000Z,15.4
2019-03-21T15:29:00.000Z,15.2
2019-03-21T15:34:00.000Z,15.0
2019-03-21T15:39:00.000Z,14.8
2019-03-21T15:44:00.000Z,14.7
2019-03-21T15:49:00.000Z,14.5
2019-03-21T15:54:00.000Z,14.3
2019-03-21T15:59:00.000Z,14.1
2019-03-21T16:04:00.000Z,14.0
2019-03-21T16:09:00.000Z,13.9
2019-03-21T16:14:00.000Z,13.8
2019-03-21T16:19:00.000Z,13.7
2019-03-21T16:24:00.000Z,13.6
2019-03-21T16:29:00.000Z,13.4
2019-03-21T16:34:00.000Z,13.3
2019-03-21T16:39:00.000Z,13.2
2019-03-21T16:44:00.000Z,13.1
2019-03-21T16:49:00.000Z,13.0
2019-03-21T16:54:00.000Z,12.8
2019-03-21T16:59:00.000Z,12.7
2019-03-21T17:04:00.000Z,12.6
2019-03-21T17:09:00.000Z,12.5
2019-03-21T17:14:00.000Z,12.4
2019-03-21T17:19:00.000Z,12.3
2019-03-21T17:24:00.000Z,12.2
2019-03-21T17:29:00.000Z,12.1
2019-03-21T17:34:00.000Z,12.1
2019-03-21T17:39:00.000Z,12.0
2019-03-21T17:44:00.000Z,11.9
2019-03-21T17:49:00.000Z,11.8
2019-03-21T17:54:00.000Z,11.7
2019-03-21T17:59:00.000Z,11.6
2019-03-21T18:04:00.000Z,11.6
2019-03-21T18:09:00.000Z,11.5
2019-03-21T18:14:00.000Z,11.5
2019-03-21T18:19:00.000Z,11.4
2019-03-21T18:24:00.000Z,11.4
2019-03-21T18:29:00.000Z,11.4
2019-03-21T18:34:00.000Z,11.3
2019-03-21T18:39:00.000Z,11.2
2019-03-21T18:44:00.000Z,11.1
2019-03-21T18:49:00.000Z,11.1
2019-03-21T18:54:00.000Z,11.0
2019-03-21T19:00:00.000Z,11.0
2019-03-21T19:05:00.000Z,10.9
2019-03-21T19:10:00.000Z,10.8
2019-03-21T19:15:00.000Z,10.7
2019-03-21T19:20:00.000Z,10.7
2019-03-21T19:25:00.000Z,10.6
2019-03-21T19:30:00.000Z,10.6
2019-03-21T19:35:00.000Z,10.5
2019-03-21T19:40:00.000Z,10.4
2019-03-21T19:45:00.000Z,10.3
2019-03-21T19:50:00.000Z,10.3
2019-03-21T19:55:00.000Z,10.2
2019-03-21T20:00:00.000Z,10.2
2019-03-21T20:05:00.000Z,10.2
2019-03-21T20:10:00.000Z,10.2
2019-03-21T20:15:00.000Z,10.1
2019-03-21T20:20:00.000Z,10.1
2019-03-21T20:25:00.000Z,10.1
2019-03-21T20:30:00.000Z,10.1
2019-03-21T20:35:00.000Z,10.0
2019-03-21T20:40:00.000Z,10.0
2019-03-21T20:45:00.000Z,9.9
2019-03-21T20:50:00.000Z,9.9
2019-03-21T20:55:00.000Z,9.9
2019-03-21T21:00:00.000Z,9.9
2019-03-21T21:05:00.000Z,9.9
2019-03-21T21:10:00.000Z,9.8
2019-03-21T21:15:00.000Z,9.8
2019-03-21T21:20:00.000Z,9.8
2019-03-21T21:25:00.000Z,9.7
2019-03-21T21:31:00.000Z,9.7
2019-03-21T21:36:00.000Z,9.7
2019-03-21T21:41:00.000Z,9.6
2019-03-21T21:46:00.000Z,9.6
2019-03-21T21:51:00.000Z,9.5
2019-03-21T21:56:00.000Z,9.5
2019-03-21T22:01:00.000Z,9.3
2019-03-21T22:06:00.000Z,9.3
2019-03-21T22:11:00.000Z,9.2
2019-03-21T22:16:00.000Z,9.1
2019-03-21T22:21:00.000Z,9.0
2019-03-21T22:26:00.000Z,8.9
2019-03-21T22:31:00.000Z,8.8
2019-03-21T22:36:00.000Z,8.7
2019-03-21T22:41:00.000Z,8.6
2019-03-21T22:46:00.000Z,8.6
2019-03-21T22:51:00.000Z,8.6
2019-03-21T22:56:00.000Z,8.6
2019-03-21T23:01:00.000Z,8.7
2019-03-21T23:06:00.000Z,8.7
2019-03-21T23:11:00.000Z,8.7
2019-03-21T23:16:00.000Z,8.7
2019-03-21T23:21:00.000Z,8.7
2019-03-21T23:26:00.000Z,8.6
2019-03-21T23:31:00.000Z,8.5
2019-03-21T23:36:00.000Z,8.3
2019-03-21T23:41:00.000Z,8.3
2019-03-21T23:46:00.000Z,8.3
2019-03-21T23:51:00.000Z,8.2
2019-03-21T23:56:00.000Z,7.9
